Georgetown, DE

6:56 PM EDT on August 21, 2014 (GMT -0400)
Sussex County | Change Station
CLOSE
Current Station
Airport
Location: Georgetown,
Elevation: 52 ft
Nearby Weather Stations

Elev 52 ft 38.69 °N, 75.36 °W | Updated 38 minutes ago

Scattered Clouds
Scattered Clouds
77 °F
Feels Like 77 °F
N
9
Wind Variable Wind from SE

Today
High -- | Low -- °F
--% Chance of Precip.
Yesterday
High -- | Low -- °F
Precip. -- in
6:20 AM 7:47 PM
Waning Crescent, 12% visible
Pressure 30.02 in
Visibility 10.0 miles
Clouds Few 2200 ft
Scattered Clouds 3100 ft
Dew Point 71 °F
Humidity 82%
Rainfall 0.21 in
Snow Depth Not available.
UV 1 out of 12
Pollen 9.00 out of 12
Air Quality Not available.
Flu Activity Not available.
SPECI KGED 212218Z AUTO 13008KT 10SM FEW022 SCT031 25/22 A3002 RMK AO2 T02500217

More Conditions Fewer Conditions

Pressure 30.02 in
Visibility 10.0 miles
Clouds Few 2200 ft
Scattered Clouds 3100 ft
Dew Point 71 °F
Humidity 82%
Rainfall 0.21 in
Snow Depth Not available.
UV 1 out of 12
Pollen 9.00 out of 12
Air Quality Not available.
Flu Activity Not available.
SPECI KGED 212218Z AUTO 13008KT 10SM FEW022 SCT031 25/22 A3002 RMK AO2 T02500217

More Conditions Fewer Conditions

10-Day Weather Forecast

Almanac

Astronomy

Aug. 21, 2014 Rise Set
Actual Time 6:20 AM EDT 7:47 PM EDT
Civil Twilight 5:52 AM EDT 8:15 PM EDT
Nautical Twilight 5:19 AM EDT 8:49 PM EDT
Astronomical Twilight 4:43 AM EDT 9:24 PM EDT
Moon 2:50 AM EDT 5:13 PM EDT
Length of Visible Light 14h 22m
Length of Day
13h 26m
Tomorrow will be 2m 18s shorter.
Waning Crescent, 12% of the Moon is Illuminated
Today
Waning Crescent
Aug 25
New
Sep 2
First Quarter
Sep 8
Full
Sep 15
Last Quarter

Today's Extremes

State Highs State Lows

Community

WunderPhotos

Upload Photos

1,746,044 photos uploaded!

WunderBlogs® & News

Nearby

Snow Depth

Station Depth Elevation
No new snow has been reported.

Earthquake Activity

City Distance Mag. Time & Date
No recent earthquake activity has been reported nearby.
Minimum magnitude displayed is 2.5.

Coastal Water Temperatures

Place Temperature
Ocean City Inlet, MD 77.0 °F
Lewes, DE 75.9 °F
Cape May, NJ 82.0 °F

Nearby Weather Stations